Time;durP1;ratioP1;P1;durP2;ratioP2;P2;SDS_P1;SDS_P2;PMS_P1;PMS_P2;Temp;Humidity;BMP_temperature;BMP_pressure;BME280_temperature;BME280_humidity;BME280_pressure;Samples;Min_cycle;Max_cycle;Signal;HPM_P1;HPM_P2
2021/12/06 00:02:05;;;;;;;;;2.50;2.50;;;;;;;;5029673;28;49924;-65
2021/12/06 00:04:36;;;;;;;;;4.00;4.00;;;;;;;;5030118;28;49892;-65
2021/12/06 00:07:03;;;;;;;;;9.25;4.00;;;;;;;;5029776;28;49700;-66
2021/12/06 00:09:29;;;;;;;;;5.00;5.00;;;;;;;;5029554;28;49749;-63
2021/12/06 00:11:57;;;;;;;;;6.00;5.00;;;;;;;;5029898;28;49729;-63
2021/12/06 00:14:27;;;;;;;;;5.00;2.00;;;;;;;;5029239;28;49726;-63
2021/12/06 00:16:53;;;;;;;;;3.00;2.00;;;;;;;;5030020;28;49621;-65
2021/12/06 00:19:18;;;;;;;;;2.75;2.75;;;;;;;;5029755;28;50353;-66
2021/12/06 00:21:43;;;;;;;;;5.75;5.75;;;;;;;;5029333;28;49979;-62
2021/12/06 00:24:08;;;;;;;;;6.50;4.50;;;;;;;;5029504;28;49981;-63
2021/12/06 00:26:34;;;;;;;;;8.75;7.75;;;;;;;;5029822;28;49677;-63
2021/12/06 00:28:59;;;;;;;;;7.50;7.00;;;;;;;;5029030;28;50119;-62
2021/12/06 00:31:27;;;;;;;;;9.00;7.50;;;;;;;;5029201;28;49737;-63
2021/12/06 00:33:58;;;;;;;;;8.25;7.75;;;;;;;;5029480;28;49782;-63
2021/12/06 00:36:28;;;;;;;;;10.75;8.00;;;;;;;;5029361;28;49719;-63
2021/12/06 00:38:53;;;;;;;;;9.50;8.50;;;;;;;;5028674;28;49617;-63
2021/12/06 00:41:19;;;;;;;;;7.50;7.50;;;;;;;;5029283;28;49737;-62
2021/12/06 00:43:44;;;;;;;;;6.00;6.00;;;;;;;;5011430;28;49688;-63
2021/12/06 00:46:10;;;;;;;;;9.25;7.75;;;;;;;;5029668;28;49723;-63
2021/12/06 00:48:35;;;;;;;;;5.00;5.00;;;;;;;;5029147;28;49622;-66
2021/12/06 00:51:00;;;;;;;;;5.25;5.25;;;;;;;;5028956;28;49759;-63
2021/12/06 00:53:26;;;;;;;;;8.50;6.75;;;;;;;;5029457;28;49717;-62
2021/12/06 00:55:51;;;;;;;;;4.00;4.00;;;;;;;;5028962;28;49752;-63
2021/12/06 00:58:16;;;;;;;;;13.25;5.75;;;;;;;;5029093;28;50782;-63
2021/12/06 01:00:47;;;;;;;;;6.50;6.50;;;;;;;;5029105;28;49909;-62
2021/12/06 01:03:14;;;;;;;;;5.75;5.00;;;;;;;;5029185;28;49771;-63
2021/12/06 01:05:40;;;;;;;;;2.25;2.00;;;;;;;;5010775;28;50195;-63
2021/12/06 01:08:05;;;;;;;;;7.50;5.00;;;;;;;;5029178;28;50628;-63
2021/12/06 01:10:32;;;;;;;;;10.00;10.00;;;;;;;;5029027;28;49965;-63
2021/12/06 01:12:58;;;;;;;;;9.75;6.50;;;;;;;;5029116;28;49587;-62
2021/12/06 01:15:23;;;;;;;;;9.50;8.00;;;;;;;;5011280;28;49801;-63
2021/12/06 01:17:49;;;;;;;;;18.75;10.75;;;;;;;;5028804;28;50687;-63
2021/12/06 01:20:19;;;;;;;;;17.75;11.75;;;;;;;;5028453;28;50104;-63
2021/12/06 01:22:51;;;;;;;;;6.25;6.25;;;;;;;;5028908;28;49685;-63
2021/12/06 01:25:31;;;;;;;;;11.25;7.00;;;;;;;;5029024;28;49701;-63
2021/12/06 01:41:21;;;;;;;;;5.00;5.00;;;;;;;;5027368;28;50175;-63
2021/12/06 01:44:02;;;;;;;;;6.75;6.00;;;;;;;;5010667;28;49602;-64
2021/12/06 01:46:27;;;;;;;;;12.25;5.75;;;;;;;;5028976;28;49983;-63
2021/12/06 01:48:53;;;;;;;;;6.25;5.25;;;;;;;;5028475;28;50870;-64
2021/12/06 01:51:18;;;;;;;;;6.00;5.75;;;;;;;;5028252;28;49823;-63
2021/12/06 01:53:43;;;;;;;;;5.75;5.00;;;;;;;;5028541;28;49558;-63
2021/12/06 01:56:08;;;;;;;;;6.00;5.00;;;;;;;;5028812;28;50378;-63
2021/12/06 01:58:34;;;;;;;;;6.25;5.50;;;;;;;;5028239;28;49909;-63
2021/12/06 02:00:59;;;;;;;;;7.25;6.25;;;;;;;;5028384;28;49570;-63
2021/12/06 02:03:24;;;;;;;;;13.00;8.00;;;;;;;;5028637;28;49747;-64
2021/12/06 02:05:51;;;;;;;;;11.00;8.00;;;;;;;;5028423;28;49709;-63
2021/12/06 02:08:16;;;;;;;;;8.25;6.00;;;;;;;;5028191;28;49668;-64
2021/12/06 02:10:41;;;;;;;;;6.00;6.00;;;;;;;;5028353;28;49905;-64
2021/12/06 02:13:08;;;;;;;;;5.25;5.25;;;;;;;;5028278;28;49903;-63
2021/12/06 02:15:43;;;;;;;;;9.50;7.00;;;;;;;;5028002;28;49929;-64
2021/12/06 02:18:39;;;;;;;;;6.00;5.00;;;;;;;;5028076;28;49835;-63
2021/12/06 02:21:08;;;;;;;;;8.25;6.00;;;;;;;;5027237;28;49732;-64
2021/12/06 02:23:33;;;;;;;;;5.00;4.00;;;;;;;;5028287;28;49848;-63
2021/12/06 02:25:58;;;;;;;;;10.00;8.50;;;;;;;;5028206;28;49684;-64
2021/12/06 02:28:24;;;;;;;;;6.75;4.50;;;;;;;;5028026;28;49621;-63
2021/12/06 02:30:49;;;;;;;;;6.75;6.75;;;;;;;;5028046;28;50449;-63
2021/12/06 02:33:15;;;;;;;;;7.25;3.00;;;;;;;;5027944;28;49745;-63
2021/12/06 02:35:40;;;;;;;;;6.25;5.00;;;;;;;;5028028;28;49745;-64
2021/12/06 02:38:07;;;;;;;;;5.25;5.00;;;;;;;;5027960;28;49869;-63
2021/12/06 02:40:33;;;;;;;;;5.75;5.25;;;;;;;;5027987;28;49795;-63
2021/12/06 02:42:59;;;;;;;;;5.75;4.00;;;;;;;;5027960;28;49601;-64
2021/12/06 02:45:26;;;;;;;;;5.00;5.00;;;;;;;;5028183;28;49946;-63
2021/12/06 02:47:53;;;;;;;;;5.50;5.50;;;;;;;;5027506;28;51816;-63
2021/12/06 02:50:20;;;;;;;;;6.50;6.50;;;;;;;;5027483;28;49551;-63
2021/12/06 02:52:45;;;;;;;;;6.25;6.25;;;;;;;;5027579;28;49553;-63
2021/12/06 02:55:29;;;;;;;;;5.25;5.25;;;;;;;;5028149;28;49771;-63
2021/12/06 02:57:57;;;;;;;;;9.75;4.00;;;;;;;;5027578;28;50460;-64
2021/12/06 03:00:22;;;;;;;;;6.00;6.00;;;;;;;;5027862;28;49718;-71
2021/12/06 03:02:48;;;;;;;;;3.00;3.00;;;;;;;;5027732;28;49777;-68
2021/12/06 03:05:13;;;;;;;;;3.00;3.00;;;;;;;;5027603;28;49896;-68
2021/12/06 03:07:39;;;;;;;;;6.25;5.75;;;;;;;;5027571;28;50433;-69
2021/12/06 03:10:08;;;;;;;;;6.00;5.00;;;;;;;;5027662;28;50208;-70
2021/12/06 03:12:34;;;;;;;;;6.50;5.50;;;;;;;;5027701;28;49892;-72
2021/12/06 03:14:59;;;;;;;;;2.50;2.50;;;;;;;;5027789;28;49991;-71
2021/12/06 03:17:26;;;;;;;;;5.00;5.00;;;;;;;;5027342;28;50885;-72
2021/12/06 03:19:52;;;;;;;;;5.00;5.00;;;;;;;;5027437;28;50090;-73
2021/12/06 03:22:17;;;;;;;;;8.25;6.75;;;;;;;;5027357;28;49940;-72
2021/12/06 03:24:43;;;;;;;;;7.50;3.00;;;;;;;;5009317;28;50021;-73
2021/12/06 03:27:09;;;;;;;;;10.25;4.00;;;;;;;;5008940;28;51263;-64
2021/12/06 03:29:35;;;;;;;;;5.25;5.25;;;;;;;;5027139;28;49951;-64
2021/12/06 03:32:00;;;;;;;;;5.50;5.50;;;;;;;;5027290;28;49586;-64
2021/12/06 03:34:26;;;;;;;;;9.50;6.50;;;;;;;;5027351;28;49595;-65
2021/12/06 03:36:53;;;;;;;;;6.50;4.00;;;;;;;;5026837;28;50687;-65
2021/12/06 03:39:23;;;;;;;;;8.25;7.00;;;;;;;;5027315;28;49740;-65
2021/12/06 03:41:48;;;;;;;;;5.75;5.75;;;;;;;;5027287;28;50001;-64
2021/12/06 03:44:14;;;;;;;;;5.75;5.75;;;;;;;;5027244;28;49790;-65
2021/12/06 03:46:40;;;;;;;;;8.50;6.75;;;;;;;;5026718;28;50679;-64
2021/12/06 03:49:12;;;;;;;;;6.50;6.50;;;;;;;;5026899;28;49912;-65
2021/12/06 03:51:37;;;;;;;;;9.00;6.00;;;;;;;;5026497;28;49751;-64
2021/12/06 03:54:03;;;;;;;;;6.00;6.00;;;;;;;;5027315;28;50035;-64
2021/12/06 03:56:28;;;;;;;;;5.00;5.00;;;;;;;;5026749;28;49700;-64
2021/12/06 03:58:53;;;;;;;;;5.50;3.50;;;;;;;;5026842;28;49884;-65
2021/12/06 04:01:18;;;;;;;;;6.00;5.00;;;;;;;;5026831;28;49757;-65
2021/12/06 04:03:44;;;;;;;;;7.00;7.00;;;;;;;;5027008;28;49617;-64
2021/12/06 04:06:10;;;;;;;;;9.00;9.00;;;;;;;;5029012;28;49911;-66
2021/12/06 04:08:36;;;;;;;;;10.00;6.25;;;;;;;;5030937;27;49826;-65
2021/12/06 04:11:02;;;;;;;;;6.00;5.50;;;;;;;;5029984;28;50054;-65
2021/12/06 04:13:27;;;;;;;;;3.00;3.00;;;;;;;;5030250;28;50018;-65
2021/12/06 04:15:52;;;;;;;;;8.25;6.75;;;;;;;;5029621;28;50942;-66
2021/12/06 04:18:17;;;;;;;;;8.75;6.00;;;;;;;;5029753;28;49667;-65
2021/12/06 04:20:43;;;;;;;;;5.75;5.25;;;;;;;;5029509;28;49788;-65
2021/12/06 04:23:09;;;;;;;;;6.25;5.75;;;;;;;;5029937;28;49748;-65
2021/12/06 04:25:35;;;;;;;;;5.00;5.00;;;;;;;;5029202;28;49903;-65
2021/12/06 04:28:05;;;;;;;;;6.25;6.25;;;;;;;;5029619;28;49747;-66
2021/12/06 04:30:31;;;;;;;;;7.75;6.25;;;;;;;;5029733;28;49666;-72
2021/12/06 04:32:56;;;;;;;;;4.25;4.25;;;;;;;;5029822;28;49645;-70
2021/12/06 04:35:22;;;;;;;;;5.25;5.25;;;;;;;;5029388;28;50819;-68
2021/12/06 04:37:47;;;;;;;;;7.75;7.25;;;;;;;;5029457;28;49758;-69
2021/12/06 04:40:13;;;;;;;;;7.75;6.25;;;;;;;;5029452;28;49822;-71
2021/12/06 04:42:39;;;;;;;;;7.25;7.25;;;;;;;;5029535;28;49871;-71
2021/12/06 04:45:05;;;;;;;;;5.75;5.00;;;;;;;;5029360;28;49899;-70
2021/12/06 04:47:30;;;;;;;;;5.25;5.25;;;;;;;;5029426;28;49875;-72
2021/12/06 04:49:55;;;;;;;;;6.75;5.50;;;;;;;;5011225;28;49855;-70
2021/12/06 04:52:20;;;;;;;;;5.00;5.00;;;;;;;;5029605;28;49793;-69
2021/12/06 04:54:48;;;;;;;;;7.50;6.50;;;;;;;;5011269;28;50354;-71
2021/12/06 04:57:16;;;;;;;;;6.00;6.00;;;;;;;;5029141;28;49700;-71
2021/12/06 05:00:03;;;;;;;;;5.00;5.00;;;;;;;;5029423;28;49845;-69
2021/12/06 05:02:31;;;;;;;;;5.75;5.75;;;;;;;;5029556;28;49875;-69
2021/12/06 05:05:00;;;;;;;;;5.75;5.75;;;;;;;;5029089;28;49992;-71
2021/12/06 05:07:29;;;;;;;;;3.50;3.00;;;;;;;;5029259;28;50052;-69
2021/12/06 05:09:54;;;;;;;;;13.00;8.00;;;;;;;;5029347;28;49611;-66
2021/12/06 05:12:21;;;;;;;;;7.00;5.00;;;;;;;;5029548;28;49784;-70
2021/12/06 05:14:47;;;;;;;;;6.00;5.00;;;;;;;;5029158;28;50636;-69
2021/12/06 05:17:12;;;;;;;;;5.75;5.00;;;;;;;;5027770;28;49740;-70
2021/12/06 05:19:37;;;;;;;;;5.25;4.50;;;;;;;;5028855;28;49935;-70
2021/12/06 05:22:03;;;;;;;;;8.00;5.50;;;;;;;;5029390;28;49903;-69
2021/12/06 05:24:28;;;;;;;;;7.00;6.00;;;;;;;;5028761;28;49698;-67
2021/12/06 05:26:54;;;;;;;;;5.00;3.00;;;;;;;;5029144;28;49739;-63
2021/12/06 05:29:24;;;;;;;;;6.00;6.00;;;;;;;;5029189;28;50040;-62
2021/12/06 05:31:55;;;;;;;;;3.00;3.00;;;;;;;;5011208;28;49682;-62
2021/12/06 05:34:28;;;;;;;;;4.50;4.50;;;;;;;;5028503;28;49890;-63
2021/12/06 05:36:53;;;;;;;;;5.00;5.00;;;;;;;;5028662;28;49792;-63
2021/12/06 05:39:18;;;;;;;;;4.50;4.50;;;;;;;;5028741;28;49724;-62
2021/12/06 05:41:44;;;;;;;;;4.00;3.50;;;;;;;;5028832;28;50031;-63
2021/12/06 05:44:09;;;;;;;;;5.75;2.50;;;;;;;;5028580;28;49907;-65
2021/12/06 05:46:34;;;;;;;;;6.25;5.00;;;;;;;;5028806;28;49743;-62
2021/12/06 05:48:59;;;;;;;;;7.25;6.50;;;;;;;;5028788;28;49656;-63
2021/12/06 05:51:25;;;;;;;;;6.00;6.00;;;;;;;;5028495;28;49930;-64
2021/12/06 05:53:50;;;;;;;;;5.50;3.50;;;;;;;;5028573;28;50069;-63
2021/12/06 05:56:15;;;;;;;;;8.00;4.75;;;;;;;;5028354;28;49708;-63
2021/12/06 05:58:41;;;;;;;;;8.75;6.75;;;;;;;;5028760;28;49803;-65
2021/12/06 06:01:06;;;;;;;;;7.00;7.00;;;;;;;;5028936;28;50112;-65
2021/12/06 06:03:32;;;;;;;;;8.00;6.75;;;;;;;;5027906;28;50819;-63
2021/12/06 06:05:58;;;;;;;;;9.00;5.75;;;;;;;;5010096;28;49624;-65
2021/12/06 06:08:23;;;;;;;;;6.00;6.00;;;;;;;;5028534;28;49717;-64
2021/12/06 06:10:51;;;;;;;;;6.50;6.00;;;;;;;;5028646;28;49728;-64
2021/12/06 06:13:17;;;;;;;;;7.75;6.75;;;;;;;;5028116;28;49745;-65
2021/12/06 06:15:42;;;;;;;;;8.75;7.25;;;;;;;;5028193;28;49864;-63
2021/12/06 06:18:07;;;;;;;;;9.75;7.50;;;;;;;;5028528;28;49717;-64
2021/12/06 06:20:43;;;;;;;;;8.50;8.50;;;;;;;;5028075;28;49709;-63
2021/12/06 06:23:08;;;;;;;;;7.25;6.50;;;;;;;;5032231;28;50592;-63
2021/12/06 06:25:34;;;;;;;;;6.50;6.50;;;;;;;;5028200;28;49912;-63
2021/12/06 06:28:00;;;;;;;;;6.75;6.50;;;;;;;;5028065;28;49803;-68
2021/12/06 06:30:25;;;;;;;;;5.50;5.00;;;;;;;;5028197;28;49627;-62
2021/12/06 06:32:50;;;;;;;;;10.50;8.25;;;;;;;;5027925;28;49745;-65
2021/12/06 06:35:16;;;;;;;;;6.00;6.00;;;;;;;;5028717;28;49942;-62
2021/12/06 06:37:42;;;;;;;;;5.00;5.00;;;;;;;;5028151;28;49942;-68
2021/12/06 06:40:07;;;;;;;;;8.00;8.00;;;;;;;;5028214;28;49551;-67
2021/12/06 06:42:33;;;;;;;;;12.00;10.25;;;;;;;;5027801;28;52035;-68
2021/12/06 06:44:58;;;;;;;;;7.75;6.25;;;;;;;;5010066;28;49678;-63
2021/12/06 06:47:23;;;;;;;;;7.25;5.75;;;;;;;;5009798;28;49601;-68
2021/12/06 06:49:49;;;;;;;;;6.25;6.25;;;;;;;;5027761;28;49545;-71
2021/12/06 06:52:14;;;;;;;;;7.50;7.00;;;;;;;;5027850;28;50949;-66
2021/12/06 06:54:39;;;;;;;;;6.75;6.75;;;;;;;;5010109;28;49606;-66
2021/12/06 06:57:05;;;;;;;;;6.00;5.00;;;;;;;;5028148;28;49776;-74
2021/12/06 06:59:30;;;;;;;;;11.75;11.00;;;;;;;;5027973;28;49790;-69
2021/12/06 07:01:55;;;;;;;;;13.25;7.00;;;;;;;;5033097;28;50457;-69
2021/12/06 07:04:21;;;;;;;;;14.25;9.75;;;;;;;;5029166;28;49824;-73
2021/12/06 07:06:46;;;;;;;;;11.00;11.00;;;;;;;;5027857;28;49813;-70
2021/12/06 07:09:11;;;;;;;;;11.00;10.75;;;;;;;;5028032;28;49591;-69
2021/12/06 07:11:37;;;;;;;;;11.00;10.00;;;;;;;;5030147;28;49987;-71
2021/12/06 07:14:03;;;;;;;;;10.25;7.75;;;;;;;;5028103;28;49755;-70
2021/12/06 07:16:29;;;;;;;;;11.00;9.50;;;;;;;;5029723;28;49795;-68
2021/12/06 07:18:55;;;;;;;;;8.50;8.50;;;;;;;;5028360;28;49910;-70
2021/12/06 07:21:20;;;;;;;;;12.50;9.00;;;;;;;;5027811;28;50480;-67
2021/12/06 07:23:45;;;;;;;;;13.25;11.25;;;;;;;;5028333;28;49686;-69
2021/12/06 07:26:13;;;;;;;;;6.25;6.00;;;;;;;;5028448;28;49935;-76
2021/12/06 07:28:38;;;;;;;;;11.25;10.25;;;;;;;;5027555;28;49745;-68
2021/12/06 07:31:06;;;;;;;;;10.50;9.50;;;;;;;;5009117;28;51897;-67
2021/12/06 07:33:32;;;;;;;;;15.25;12.25;;;;;;;;5027325;28;49701;-67
2021/12/06 07:35:57;;;;;;;;;11.25;10.25;;;;;;;;5026918;28;49751;-67
2021/12/06 07:38:22;;;;;;;;;6.25;6.00;;;;;;;;5027567;28;49820;-67
2021/12/06 07:40:50;;;;;;;;;11.75;10.25;;;;;;;;5029578;28;49914;-71
2021/12/06 07:43:16;;;;;;;;;11.00;10.50;;;;;;;;5032275;28;49758;-76
2021/12/06 07:45:41;;;;;;;;;7.25;7.25;;;;;;;;5012491;28;50037;-58
2021/12/06 07:48:06;;;;;;;;;11.00;9.50;;;;;;;;5030654;28;49587;-62
2021/12/06 07:50:32;;;;;;;;;13.25;11.00;;;;;;;;5029667;28;49725;-64
2021/12/06 07:52:57;;;;;;;;;14.00;9.25;;;;;;;;5032728;28;49843;-77
2021/12/06 07:55:25;;;;;;;;;13.00;13.00;;;;;;;;5032906;28;49542;-66
2021/12/06 07:57:52;;;;;;;;;14.75;14.75;;;;;;;;5030754;28;49592;-64
2021/12/06 08:00:20;;;;;;;;;14.25;11.00;;;;;;;;5029525;28;49711;-64
2021/12/06 08:02:45;;;;;;;;;14.50;12.00;;;;;;;;5034395;28;49773;-71
2021/12/06 08:05:30;;;;;;;;;19.00;13.75;;;;;;;;5033993;27;50317;-67
2021/12/06 08:07:56;;;;;;;;;13.75;11.50;;;;;;;;5046767;28;49733;-68
2021/12/06 08:10:21;;;;;;;;;14.25;13.00;;;;;;;;5068741;27;49936;-72
2021/12/06 08:12:46;;;;;;;;;12.50;12.50;;;;;;;;5157004;27;49976;-72
2021/12/06 08:15:11;;;;;;;;;12.00;12.00;;;;;;;;5127124;27;49775;-73
2021/12/06 08:17:36;;;;;;;;;12.25;11.25;;;;;;;;5032287;27;49893;-74
2021/12/06 08:20:03;;;;;;;;;16.00;13.25;;;;;;;;5049317;28;50074;-74
2021/12/06 08:22:29;;;;;;;;;14.25;12.25;;;;;;;;5052304;28;49715;-73
2021/12/06 08:24:54;;;;;;;;;18.00;16.00;;;;;;;;5068878;27;49697;-73
2021/12/06 08:27:19;;;;;;;;;11.50;11.50;;;;;;;;5070291;28;49746;-73
2021/12/06 08:29:44;;;;;;;;;9.00;9.00;;;;;;;;5068639;28;49675;-74
2021/12/06 08:32:11;;;;;;;;;13.00;9.75;;;;;;;;5067886;28;49753;-74
2021/12/06 08:34:41;;;;;;;;;10.75;10.00;;;;;;;;5086316;27;49751;-71
2021/12/06 08:37:06;;;;;;;;;14.00;14.00;;;;;;;;5154651;27;49992;-72
2021/12/06 08:39:31;;;;;;;;;13.00;11.00;;;;;;;;5153574;27;49810;-73
2021/12/06 08:41:56;;;;;;;;;13.00;11.00;;;;;;;;5135397;27;49843;-73
2021/12/06 08:44:22;;;;;;;;;13.00;10.50;;;;;;;;5085077;27;49558;-74
2021/12/06 08:46:47;;;;;;;;;12.00;11.75;;;;;;;;5048680;28;49604;-75
2021/12/06 08:49:13;;;;;;;;;10.25;8.25;;;;;;;;5039209;28;49733;-73
2021/12/06 08:51:46;;;;;;;;;13.25;11.75;;;;;;;;5028118;28;49845;-73
2021/12/06 08:54:14;;;;;;;;;14.50;9.50;;;;;;;;5009467;28;49890;-72
2021/12/06 08:56:40;;;;;;;;;15.50;12.75;;;;;;;;5028145;28;49691;-72
2021/12/06 08:59:06;;;;;;;;;13.00;13.00;;;;;;;;5028003;28;49667;-71
2021/12/06 09:01:32;;;;;;;;;16.50;12.25;;;;;;;;5009458;28;49713;-72
2021/12/06 09:03:57;;;;;;;;;12.25;8.50;;;;;;;;5027873;28;49848;-74
2021/12/06 09:06:22;;;;;;;;;13.75;11.00;;;;;;;;5010123;28;49862;-73
2021/12/06 09:08:48;;;;;;;;;20.50;12.00;;;;;;;;5034365;27;49811;-72
2021/12/06 09:11:13;;;;;;;;;16.00;12.50;;;;;;;;5047654;28;49662;-70
2021/12/06 09:13:39;;;;;;;;;11.50;11.50;;;;;;;;5050518;28;49969;-71
2021/12/06 09:16:06;;;;;;;;;11.25;11.25;;;;;;;;5068627;28;49658;-73
2021/12/06 09:18:37;;;;;;;;;22.50;14.50;;;;;;;;5068000;28;49814;-72
2021/12/06 09:21:03;;;;;;;;;17.50;13.00;;;;;;;;5068181;28;49948;-68
2021/12/06 09:23:29;;;;;;;;;13.75;12.00;;;;;;;;5066228;28;49970;-70
2021/12/06 09:25:54;;;;;;;;;17.50;15.00;;;;;;;;5086852;27;49829;-74
2021/12/06 09:28:20;;;;;;;;;11.25;9.50;;;;;;;;5153329;27;50536;-72
2021/12/06 09:30:46;;;;;;;;;12.25;12.25;;;;;;;;5153977;27;49833;-71
2021/12/06 09:33:12;;;;;;;;;18.00;14.25;;;;;;;;5151742;27;49796;-71
2021/12/06 09:35:41;;;;;;;;;12.00;10.75;;;;;;;;5153835;27;49983;-70
2021/12/06 09:38:06;;;;;;;;;11.00;9.00;;;;;;;;5153260;27;50529;-71
2021/12/06 09:40:32;;;;;;;;;10.25;10.25;;;;;;;;5154265;27;50019;-71
2021/12/06 09:42:58;;;;;;;;;11.00;8.25;;;;;;;;5153786;27;49922;-72
2021/12/06 09:45:26;;;;;;;;;11.25;8.50;;;;;;;;5133535;27;50209;-75
2021/12/06 09:47:53;;;;;;;;;14.00;11.25;;;;;;;;5153319;27;50007;-73
2021/12/06 09:50:24;;;;;;;;;11.00;11.00;;;;;;;;5154850;27;49532;-75
2021/12/06 09:52:50;;;;;;;;;13.50;11.75;;;;;;;;5154291;27;50075;-71
2021/12/06 09:55:16;;;;;;;;;11.50;10.00;;;;;;;;5152861;27;49920;-75
2021/12/06 09:57:41;;;;;;;;;9.00;9.00;;;;;;;;5153746;27;51207;-74
2021/12/06 10:00:08;;;;;;;;;14.50;12.75;;;;;;;;5153192;27;49864;-78
2021/12/06 10:02:33;;;;;;;;;12.50;12.50;;;;;;;;5129039;27;49578;-74
2021/12/06 10:04:59;;;;;;;;;11.25;10.00;;;;;;;;5066892;28;49773;-75
2021/12/06 10:07:24;;;;;;;;;12.25;10.00;;;;;;;;5044122;27;50151;-75
2021/12/06 10:09:51;;;;;;;;;8.00;8.00;;;;;;;;5046696;28;49679;-71
2021/12/06 10:12:17;;;;;;;;;9.00;8.50;;;;;;;;5047127;28;49823;-72
2021/12/06 10:14:44;;;;;;;;;9.25;9.00;;;;;;;;5047880;28;49665;-73
2021/12/06 10:17:09;;;;;;;;;15.50;13.00;;;;;;;;5045415;28;50344;-71
2021/12/06 10:19:34;;;;;;;;;11.00;11.00;;;;;;;;5036759;28;50047;-73
2021/12/06 10:22:00;;;;;;;;;8.00;8.00;;;;;;;;5043773;28;49747;-67
2021/12/06 10:24:27;;;;;;;;;11.00;11.00;;;;;;;;5035203;28;49719;-72
2021/12/06 10:27:03;;;;;;;;;14.75;13.00;;;;;;;;5028982;28;50725;-70
2021/12/06 10:29:34;;;;;;;;;14.25;11.00;;;;;;;;5045345;28;49804;-80
2021/12/06 10:31:59;;;;;;;;;11.00;11.00;;;;;;;;5048647;28;49899;-77
2021/12/06 10:34:27;;;;;;;;;14.75;14.00;;;;;;;;5051026;28;49658;-69
2021/12/06 10:36:52;;;;;;;;;10.75;10.75;;;;;;;;5050059;28;50507;-71
2021/12/06 10:39:17;;;;;;;;;17.00;12.25;;;;;;;;5048007;28;49600;-73
2021/12/06 10:41:47;;;;;;;;;13.75;13.75;;;;;;;;5048622;28;49627;-71
2021/12/06 10:44:13;;;;;;;;;12.50;12.00;;;;;;;;5048396;28;49821;-69
2021/12/06 10:46:40;;;;;;;;;13.00;12.00;;;;;;;;5047725;28;49779;-75
2021/12/06 10:49:07;;;;;;;;;13.25;12.50;;;;;;;;5054254;28;49919;-73
2021/12/06 10:51:32;;;;;;;;;10.25;10.25;;;;;;;;5048094;28;49701;-73
2021/12/06 10:54:15;;;;;;;;;13.00;13.00;;;;;;;;5048031;27;49736;-72
2021/12/06 10:56:46;;;;;;;;;12.00;9.50;;;;;;;;5047960;28;49625;-72
2021/12/06 10:59:12;;;;;;;;;12.75;12.00;;;;;;;;5047895;28;49611;-73
2021/12/06 11:01:37;;;;;;;;;12.50;12.00;;;;;;;;5047886;28;49747;-77
2021/12/06 11:04:05;;;;;;;;;13.00;12.00;;;;;;;;5048031;28;49681;-73
2021/12/06 11:06:32;;;;;;;;;17.00;12.25;;;;;;;;5047812;28;50875;-70
2021/12/06 11:09:00;;;;;;;;;14.00;12.00;;;;;;;;5047896;28;50082;-75
2021/12/06 11:11:28;;;;;;;;;12.50;11.00;;;;;;;;5047934;28;49763;-72
2021/12/06 11:13:56;;;;;;;;;11.25;11.00;;;;;;;;5047606;28;49783;-71
2021/12/06 11:16:27;;;;;;;;;15.00;13.00;;;;;;;;5047483;28;50748;-74
2021/12/06 11:18:52;;;;;;;;;14.25;12.00;;;;;;;;5047851;28;49713;-64
2021/12/06 11:21:27;;;;;;;;;12.50;11.00;;;;;;;;5047306;28;49686;-72
2021/12/06 11:24:03;;;;;;;;;8.50;8.50;;;;;;;;5051550;28;49620;-64
2021/12/06 11:26:30;;;;;;;;;13.75;12.00;;;;;;;;5051223;27;51607;-76
2021/12/06 11:28:55;;;;;;;;;9.50;7.25;;;;;;;;5106887;27;49931;-63
2021/12/06 11:31:20;;;;;;;;;13.75;13.75;;;;;;;;5116520;27;49839;-63
2021/12/06 11:33:56;;;;;;;;;9.00;9.00;;;;;;;;5049535;28;49787;-75
2021/12/06 11:36:23;;;;;;;;;19.50;13.25;;;;;;;;5051684;27;49803;-63
2021/12/06 11:38:58;;;;;;;;;12.00;9.75;;;;;;;;5115905;27;49628;-75
2021/12/06 11:41:24;;;;;;;;;13.00;12.50;;;;;;;;5046061;28;49888;-65
2021/12/06 11:43:49;;;;;;;;;8.00;8.00;;;;;;;;5047237;28;50361;-65
2021/12/06 11:46:25;;;;;;;;;13.00;11.00;;;;;;;;5046458;28;49631;-68
2021/12/06 11:48:50;;;;;;;;;12.50;10.00;;;;;;;;5046840;28;49852;-64
2021/12/06 11:51:16;;;;;;;;;8.75;5.75;;;;;;;;5046576;28;49832;-62
2021/12/06 11:53:46;;;;;;;;;9.00;8.50;;;;;;;;5115491;27;49964;-65
2021/12/06 11:56:14;;;;;;;;;10.75;9.75;;;;;;;;5096105;27;51343;-63
2021/12/06 11:58:42;;;;;;;;;10.50;7.50;;;;;;;;5045462;28;49887;-66
2021/12/06 12:01:12;;;;;;;;;9.00;8.00;;;;;;;;5045412;28;49758;-63
2021/12/06 12:03:38;;;;;;;;;8.00;8.00;;;;;;;;5045528;28;49781;-63
2021/12/06 12:06:19;;;;;;;;;6.00;6.00;;;;;;;;5045133;28;51269;-65
2021/12/06 12:08:44;;;;;;;;;8.50;8.50;;;;;;;;5045574;27;49986;-64
2021/12/06 12:11:10;;;;;;;;;9.75;7.25;;;;;;;;5085462;27;50309;-72
2021/12/06 12:13:36;;;;;;;;;4.75;4.75;;;;;;;;5046609;28;50095;-66
2021/12/06 12:16:07;;;;;;;;;8.75;7.50;;;;;;;;5046556;28;49743;-74
2021/12/06 12:18:33;;;;;;;;;9.25;9.25;;;;;;;;5046662;28;49934;-68
2021/12/06 12:20:58;;;;;;;;;10.75;9.75;;;;;;;;5046008;28;49755;-64
2021/12/06 12:23:26;;;;;;;;;10.50;7.25;;;;;;;;5116318;27;49785;-67
2021/12/06 12:25:57;;;;;;;;;6.00;6.00;;;;;;;;5047143;27;50816;-67
2021/12/06 12:28:31;;;;;;;;;9.00;8.00;;;;;;;;5049479;28;49718;-71
2021/12/06 12:30:58;;;;;;;;;7.25;5.75;;;;;;;;5049581;28;49523;-72
2021/12/06 12:33:23;;;;;;;;;5.50;4.75;;;;;;;;5049784;28;49922;-66
2021/12/06 12:35:52;;;;;;;;;4.50;4.50;;;;;;;;5118878;27;50921;-64
2021/12/06 12:38:24;;;;;;;;;4.00;4.00;;;;;;;;5049644;27;49553;-70
2021/12/06 12:40:52;;;;;;;;;4.00;4.00;;;;;;;;5049425;28;49666;-69
2021/12/06 12:43:20;;;;;;;;;6.50;6.50;;;;;;;;5119267;27;50039;-70
2021/12/06 12:45:50;;;;;;;;;8.00;6.00;;;;;;;;5118343;27;51306;-72
2021/12/06 12:48:20;;;;;;;;;5.25;5.25;;;;;;;;5118450;27;49611;-70
2021/12/06 12:51:07;;;;;;;;;5.75;5.75;;;;;;;;5049528;28;49706;-75
2021/12/06 12:53:51;;;;;;;;;4.00;4.00;;;;;;;;5049947;28;50068;-63
2021/12/06 12:56:18;;;;;;;;;7.00;7.00;;;;;;;;5049283;28;50584;-65
2021/12/06 12:58:43;;;;;;;;;4.75;4.00;;;;;;;;5049216;28;49743;-73
2021/12/06 13:01:09;;;;;;;;;8.00;6.50;;;;;;;;5045323;28;49838;-63
2021/12/06 13:03:40;;;;;;;;;4.00;4.00;;;;;;;;5038393;28;49700;-62
2021/12/06 13:06:11;;;;;;;;;7.25;7.25;;;;;;;;5028570;28;49599;-68
2021/12/06 13:08:36;;;;;;;;;7.25;5.50;;;;;;;;5011195;28;49992;-69
2021/12/06 13:11:02;;;;;;;;;7.75;6.50;;;;;;;;5029201;27;49931;-65
2021/12/06 13:13:34;;;;;;;;;8.25;6.75;;;;;;;;5012426;27;49930;-69
2021/12/06 13:16:24;;;;;;;;;7.00;4.25;;;;;;;;5028991;28;50564;-74
2021/12/06 13:21:28;;;;;;;;;6.00;6.00;;;;;;;;5028668;28;49705;-64
2021/12/06 13:24:04;;;;;;;;;4.25;3.75;;;;;;;;5029039;28;49686;-68
2021/12/06 13:26:34;;;;;;;;;7.00;5.25;;;;;;;;5010819;28;50824;-69
2021/12/06 13:29:10;;;;;;;;;8.50;6.50;;;;;;;;5029291;28;49828;-67
2021/12/06 13:31:35;;;;;;;;;7.25;7.25;;;;;;;;5011417;28;49764;-72
2021/12/06 13:34:15;;;;;;;;;6.50;5.25;;;;;;;;5011675;28;49780;-64
2021/12/06 13:36:50;;;;;;;;;8.00;6.00;;;;;;;;5028771;28;50646;-64
2021/12/06 13:39:35;;;;;;;;;10.75;8.25;;;;;;;;5011055;28;49828;-76
2021/12/06 13:42:03;;;;;;;;;10.00;7.50;;;;;;;;5029879;28;49891;-64
2021/12/06 13:44:44;;;;;;;;;6.50;5.00;;;;;;;;5029557;28;50036;-72
2021/12/06 13:47:11;;;;;;;;;8.00;7.00;;;;;;;;5012309;28;51455;-65
2021/12/06 13:49:50;;;;;;;;;8.75;5.25;;;;;;;;5029626;28;49775;-66
2021/12/06 13:52:15;;;;;;;;;7.00;7.00;;;;;;;;5029533;28;49565;-63
2021/12/06 13:54:42;;;;;;;;;6.75;4.75;;;;;;;;5011392;27;49629;-66
2021/12/06 13:57:10;;;;;;;;;10.50;9.00;;;;;;;;5029563;28;50308;-65
2021/12/06 13:59:55;;;;;;;;;8.00;5.00;;;;;;;;5011746;28;49893;-74
2021/12/06 14:02:24;;;;;;;;;7.00;5.25;;;;;;;;5010171;28;50118;-64
2021/12/06 14:04:50;;;;;;;;;3.50;3.50;;;;;;;;5010698;28;49733;-67
2021/12/06 14:07:20;;;;;;;;;3.00;3.00;;;;;;;;5048700;28;52223;-74
2021/12/06 14:09:49;;;;;;;;;5.25;2.50;;;;;;;;5033380;28;49621;-67
2021/12/06 14:12:20;;;;;;;;;1.25;1.25;;;;;;;;5010291;28;49743;-72
2021/12/06 14:14:49;;;;;;;;;1.00;1.00;;;;;;;;5010447;28;49843;-64
2021/12/06 14:17:16;;;;;;;;;3.25;2.25;;;;;;;;5010211;28;51450;-68
2021/12/06 14:19:43;;;;;;;;;6.25;3.50;;;;;;;;5033064;27;49704;-71
2021/12/06 14:22:09;;;;;;;;;2.25;2.00;;;;;;;;5047836;28;49620;-65
2021/12/06 14:24:36;;;;;;;;;3.75;3.75;;;;;;;;5048203;28;49774;-74
2021/12/06 14:27:03;;;;;;;;;6.50;2.25;;;;;;;;5075417;27;49767;-63
2021/12/06 14:29:29;;;;;;;;;4.00;4.00;;;;;;;;5016448;28;49753;-71
2021/12/06 14:31:56;;;;;;;;;4.00;3.00;;;;;;;;5028244;28;49781;-74
2021/12/06 14:34:23;;;;;;;;;2.00;2.00;;;;;;;;5028226;28;49559;-64
2021/12/06 14:36:49;;;;;;;;;10.00;6.00;;;;;;;;5027572;28;50523;-70
2021/12/06 14:39:16;;;;;;;;;8.25;7.00;;;;;;;;5027782;28;49732;-69
2021/12/06 14:41:49;;;;;;;;;8.00;7.00;;;;;;;;5009624;28;49753;-63
2021/12/06 14:44:28;;;;;;;;;6.25;6.25;;;;;;;;5016390;27;50097;-64
2021/12/06 14:46:54;;;;;;;;;6.25;5.50;;;;;;;;5019881;27;51192;-64
2021/12/06 14:49:19;;;;;;;;;8.00;7.00;;;;;;;;5027243;28;49579;-64
2021/12/06 14:51:45;;;;;;;;;6.50;5.00;;;;;;;;5009704;28;49816;-64
2021/12/06 14:54:18;;;;;;;;;14.50;11.75;;;;;;;;5009867;28;49585;-66